Time;durP1;ratioP1;P1;durP2;ratioP2;P2;SDS_P1;SDS_P2;PMS_P1;PMS_P2;Temp;Humidity;BMP_temperature;BMP_pressure;BME280_temperature;BME280_humidity;BME280_pressure;Samples;Min_cycle;Max_cycle;Signal;HPM_P1;HPM_P2
2022/10/28 00:06:54;;;;;;;14.90;8.05;;;;;;;12.37;100.00;101018.00;20910627;28;20108;-78
2022/10/28 00:16:55;;;;;;;13.45;7.75;;;;;;;12.30;100.00;101022.44;20909909;28;20076;-76
2022/10/28 00:26:57;;;;;;;13.90;8.35;;;;;;;12.38;100.00;101025.84;20908885;28;20056;-76
2022/10/28 00:36:58;;;;;;;13.75;8.13;;;;;;;12.46;100.00;101034.50;20908079;28;20082;-76
2022/10/28 00:46:59;;;;;;;15.55;8.43;;;;;;;12.56;100.00;101036.13;20907897;28;20117;-79
2022/10/28 00:57:01;;;;;;;13.57;7.63;;;;;;;12.62;100.00;101015.91;20908695;28;20045;-77
2022/10/28 01:07:02;;;;;;;11.27;6.95;;;;;;;12.71;100.00;101019.25;20905695;28;20075;-77
2022/10/28 01:17:04;;;;;;;15.63;7.63;;;;;;;12.79;100.00;101006.00;20903986;28;20064;-77
2022/10/28 01:27:05;;;;;;;15.15;8.27;;;;;;;12.88;100.00;101016.38;20903731;28;20135;-80
2022/10/28 01:37:06;;;;;;;14.73;7.80;;;;;;;12.91;100.00;101003.19;20903692;28;20049;-79
2022/10/28 01:47:08;;;;;;;10.85;7.03;;;;;;;12.89;100.00;101010.25;20905323;28;20064;-79
2022/10/28 01:57:09;;;;;;;17.30;8.38;;;;;;;12.88;100.00;100991.84;20906436;28;20060;-77
2022/10/28 02:07:10;;;;;;;14.80;8.13;;;;;;;12.96;100.00;100985.59;20902685;28;20057;-78
2022/10/28 02:17:11;;;;;;;17.20;7.85;;;;;;;12.98;100.00;100996.97;20902911;28;20044;-79
2022/10/28 02:27:13;;;;;;;13.65;7.57;;;;;;;13.00;100.00;100979.38;20907858;28;20397;-79
2022/10/28 02:37:14;;;;;;;13.57;7.60;;;;;;;13.02;100.00;100982.84;20883873;28;20069;-79
2022/10/28 02:47:17;;;;;;;15.70;8.77;;;;;;;13.12;100.00;100956.41;20821440;28;20053;-79
2022/10/28 02:57:18;;;;;;;14.63;7.53;;;;;;;13.16;100.00;100952.81;20820366;28;20049;-79
2022/10/28 03:07:19;;;;;;;17.02;7.53;;;;;;;13.14;100.00;100929.19;20817120;28;20061;-76
2022/10/28 03:17:21;;;;;;;12.98;7.57;;;;;;;13.17;100.00;100938.78;20816584;28;20052;-77
2022/10/28 03:27:22;;;;;;;16.30;7.20;;;;;;;13.25;100.00;100947.44;20815454;28;20080;-77
2022/10/28 03:37:23;;;;;;;18.38;7.93;;;;;;;13.34;100.00;100940.25;20816175;28;20049;-79
2022/10/28 03:47:25;;;;;;;15.77;7.43;;;;;;;13.36;100.00;100942.84;20904392;28;20080;-78
2022/10/28 03:57:26;;;;;;;16.20;7.03;;;;;;;13.35;100.00;100913.06;20918743;28;20056;-78
2022/10/28 04:07:27;;;;;;;18.00;7.47;;;;;;;13.27;100.00;100903.56;20918177;28;20509;-78
2022/10/28 04:17:29;;;;;;;15.80;7.45;;;;;;;13.06;100.00;100926.69;20916398;28;20056;-79
2022/10/28 04:27:30;;;;;;;16.42;7.35;;;;;;;12.86;100.00;100926.19;20910334;28;20056;-78
2022/10/28 04:37:31;;;;;;;14.25;6.95;;;;;;;12.71;100.00;100916.78;20908996;28;20501;-77
2022/10/28 04:47:33;;;;;;;14.05;6.93;;;;;;;12.54;100.00;100917.03;20907131;28;20060;-77
2022/10/28 04:57:34;;;;;;;21.17;8.00;;;;;;;12.36;100.00;100948.84;20909497;28;20508;-79
2022/10/28 05:07:35;;;;;;;17.55;7.18;;;;;;;12.22;100.00;100956.06;20906745;28;20519;-78
2022/10/28 05:17:37;;;;;;;15.10;7.25;;;;;;;12.04;100.00;100937.03;20906871;28;20052;-79
2022/10/28 05:27:38;;;;;;;13.52;7.25;;;;;;;11.92;100.00;100908.31;20906225;28;20049;-79
2022/10/28 05:37:40;;;;;;;17.33;7.70;;;;;;;11.86;100.00;100915.41;20904997;28;20044;-77
2022/10/28 05:47:41;;;;;;;14.35;7.63;;;;;;;11.76;100.00;100902.38;20982571;28;20048;-78
2022/10/28 05:57:42;;;;;;;17.52;8.82;;;;;;;11.72;100.00;100907.66;20987815;28;20049;-77
2022/10/28 06:07:44;;;;;;;24.60;11.18;;;;;;;11.68;100.00;100905.97;20992292;28;20064;-77
2022/10/28 06:17:45;;;;;;;17.05;9.57;;;;;;;11.62;100.00;100927.91;20992981;28;20110;-78
2022/10/28 06:27:47;;;;;;;17.60;9.35;;;;;;;11.62;100.00;100927.03;20969819;28;20049;-78
2022/10/28 06:37:48;;;;;;;21.60;10.75;;;;;;;11.72;100.00;100944.38;20888852;28;20489;-78
2022/10/28 06:47:50;;;;;;;17.25;10.05;;;;;;;11.98;100.00;100960.72;20902940;28;20408;-78
2022/10/28 06:57:53;;;;;;;16.90;9.70;;;;;;;12.14;100.00;100965.78;20906554;28;20049;-77
2022/10/28 07:08:09;;;;;;;20.42;9.05;;;;;;;12.39;100.00;100969.81;20977397;22;20050;-74
2022/10/28 07:18:10;;;;;;;18.23;9.05;;;;;;;12.55;100.00;100968.72;20761603;28;20350;-75
2022/10/28 07:28:12;;;;;;;15.30;8.15;;;;;;;12.60;100.00;100973.91;20787104;28;20494;-73
2022/10/28 07:38:13;;;;;;;22.23;9.43;;;;;;;12.72;100.00;100983.34;20789059;28;20407;-73
2022/10/28 07:48:14;;;;;;;15.20;8.55;;;;;;;12.81;100.00;100988.47;20773958;28;20050;-73
2022/10/28 07:58:16;;;;;;;17.40;8.93;;;;;;;12.96;100.00;100988.22;20747143;28;20491;-73
2022/10/28 08:08:17;;;;;;;23.15;10.13;;;;;;;13.20;100.00;100980.81;20746410;28;20049;-73
2022/10/28 08:18:18;;;;;;;20.20;9.07;;;;;;;13.40;100.00;100983.97;20746302;28;20414;-73
2022/10/28 08:28:19;;;;;;;21.60;9.63;;;;;;;13.65;100.00;100989.66;20746214;28;20050;-73
2022/10/28 08:38:21;;;;;;;24.50;8.90;;;;;;;14.05;100.00;100997.66;20745271;28;20465;-73
2022/10/28 08:48:22;;;;;;;15.77;8.02;;;;;;;14.38;100.00;100995.22;20744212;28;20410;-73
2022/10/28 08:58:23;;;;;;;20.42;9.25;;;;;;;14.63;100.00;100948.97;20748562;28;20077;-73
2022/10/28 09:08:25;;;;;;;14.75;7.13;;;;;;;14.80;100.00;100953.88;20821376;28;20312;-74
2022/10/28 09:18:26;;;;;;;20.40;7.93;;;;;;;14.95;100.00;100981.63;20825081;28;20053;-73
2022/10/28 09:28:27;;;;;;;15.65;5.55;;;;;;;15.38;100.00;100999.88;20824103;28;20073;-73
2022/10/28 09:38:29;;;;;;;13.48;5.82;;;;;;;15.73;100.00;100971.69;20811642;28;20057;-73
2022/10/28 09:48:30;;;;;;;12.27;5.15;;;;;;;15.88;100.00;100975.66;20739257;28;20088;-74
2022/10/28 09:58:31;;;;;;;15.77;5.22;;;;;;;16.29;100.00;100978.84;20739158;28;20053;-73
2022/10/28 10:19:17;;;;;;;11.95;4.45;;;;;;;17.20;100.00;100969.81;20799836;28;20116;-73
2022/10/28 10:29:19;;;;;;;15.18;6.35;;;;;;;17.26;100.00;100968.75;20818317;28;20045;-74
2022/10/28 10:39:21;;;;;;;13.40;5.10;;;;;;;17.31;100.00;100957.06;20800149;28;20507;-73
2022/10/28 10:49:22;;;;;;;10.45;4.47;;;;;;;17.55;100.00;100950.06;20736055;28;20487;-73
2022/10/28 10:59:23;;;;;;;11.80;3.88;;;;;;;17.90;100.00;100946.13;20743529;28;20086;-74
2022/10/28 11:09:25;;;;;;;14.07;4.22;;;;;;;18.40;100.00;100953.09;20751869;28;20181;-73
2022/10/28 11:19:26;;;;;;;11.02;3.72;;;;;;;18.58;100.00;100931.13;20750051;28;20061;-73
2022/10/28 11:29:27;;;;;;;12.30;4.20;;;;;;;18.66;100.00;100926.38;20750790;28;20103;-73
2022/10/28 11:39:29;;;;;;;11.05;4.57;;;;;;;18.76;100.00;100926.03;20749567;28;20113;-73
2022/10/28 11:49:30;;;;;;;33.67;13.40;;;;;;;18.93;100.00;100912.94;20748445;28;20054;-73
2022/10/28 11:59:31;;;;;;;20.63;4.35;;;;;;;19.17;100.00;100917.22;20747465;28;20053;-72
2022/10/28 12:09:33;;;;;;;10.75;3.50;;;;;;;19.32;100.00;100888.25;20744332;28;20057;-72
2022/10/28 12:19:36;;;;;;;18.67;6.38;;;;;;;19.40;100.00;100870.16;20746489;28;20411;-72
2022/10/28 12:29:39;;;;;;;13.48;4.30;;;;;;;19.50;100.00;100871.50;20810982;28;20540;-72
2022/10/28 12:39:42;;;;;;;13.30;4.20;;;;;;;19.55;100.00;100869.50;20885902;28;20460;-71
2022/10/28 12:49:43;;;;;;;10.88;3.60;;;;;;;19.87;100.00;100862.72;20825884;28;20134;-72
2022/10/28 12:59:44;;;;;;;9.32;3.92;;;;;;;20.00;100.00;100849.72;20825031;28;20132;-72
2022/10/28 13:09:46;;;;;;;13.85;4.50;;;;;;;19.91;100.00;100858.13;20869426;23;20045;-79
2022/10/28 13:19:47;;;;;;;10.68;4.07;;;;;;;20.28;100.00;100853.72;20927796;28;20460;-78
2022/10/28 13:29:48;;;;;;;12.07;3.80;;;;;;;20.51;100.00;100849.97;20991563;28;20463;-75
2022/10/28 13:39:50;;;;;;;12.98;4.47;;;;;;;20.56;100.00;100854.13;20947537;28;20539;-77
2022/10/28 13:49:51;;;;;;;14.15;4.55;;;;;;;20.54;100.00;100845.31;20988867;28;20401;-77
2022/10/28 13:59:52;;;;;;;15.13;4.85;;;;;;;20.36;100.00;100814.28;20989725;28;20101;-76
2022/10/28 14:09:54;;;;;;;15.15;4.47;;;;;;;20.32;100.00;100842.00;20980185;28;20056;-73
2022/10/28 14:19:55;;;;;;;17.23;4.45;;;;;;;20.38;100.00;100844.34;20980390;28;20052;-75
2022/10/28 14:29:57;;;;;;;11.82;4.20;;;;;;;20.24;100.00;100850.34;20982117;28;20052;-74
2022/10/28 14:39:58;;;;;;;14.85;4.05;;;;;;;20.17;100.00;100847.13;20960635;28;20045;-76
2022/10/28 14:50:00;;;;;;;16.15;5.13;;;;;;;19.92;100.00;100838.59;20899738;28;20057;-76
2022/10/28 15:00:02;;;;;;;12.50;4.50;;;;;;;19.82;100.00;100834.63;20958968;28;20076;-76
2022/10/28 15:10:03;;;;;;;12.32;4.38;;;;;;;19.69;100.00;100839.66;20983019;28;20052;-76
2022/10/28 15:20:04;;;;;;;12.05;4.50;;;;;;;19.66;100.00;100864.59;20981997;28;20102;-77
2022/10/28 15:30:05;;;;;;;18.52;5.30;;;;;;;19.00;100.00;100856.00;20983912;28;20393;-77
2022/10/28 15:40:07;;;;;;;10.35;4.75;;;;;;;18.67;100.00;100837.91;20959604;28;20061;-77
2022/10/28 15:50:12;;;;;;;20.30;10.68;;;;;;;18.44;100.00;100840.66;20912258;28;20049;-77
2022/10/28 16:00:13;;;;;;;12.45;6.43;;;;;;;18.26;100.00;100841.44;20914657;28;20126;-77
2022/10/28 16:10:15;;;;;;;14.10;6.80;;;;;;;18.02;100.00;100849.44;20933997;28;20060;-77
2022/10/28 16:20:16;;;;;;;14.57;5.45;;;;;;;17.63;100.00;100857.97;20991168;28;20052;-78
2022/10/28 16:30:19;;;;;;;12.07;5.18;;;;;;;17.32;100.00;100862.66;21060944;28;20436;-78
2022/10/28 16:40:20;;;;;;;15.02;4.85;;;;;;;17.12;100.00;100872.16;21010330;28;20106;-78
2022/10/28 16:50:42;;;;;;;9.27;4.90;;;;;;;16.98;100.00;100886.78;20909871;28;20569;-77
2022/10/28 17:00:43;;;;;;;12.13;4.82;;;;;;;16.74;100.00;100894.63;20904593;28;20412;-78
2022/10/28 17:10:44;;;;;;;13.48;5.80;;;;;;;16.60;100.00;100894.19;20917594;28;20045;-78
2022/10/28 17:20:46;;;;;;;14.10;6.75;;;;;;;16.57;100.00;100889.84;20986965;28;20098;-78
2022/10/28 17:30:47;;;;;;;17.98;9.75;;;;;;;16.46;100.00;100905.22;20905988;28;20448;-77
2022/10/28 17:40:48;;;;;;;17.90;10.50;;;;;;;16.27;100.00;100897.00;20933056;28;20052;-77
2022/10/28 17:50:50;;;;;;;25.33;10.57;;;;;;;16.11;100.00;100912.47;20983296;28;20071;-77
2022/10/28 18:00:51;;;;;;;21.67;10.77;;;;;;;15.94;100.00;100920.03;20981738;28;20131;-77
2022/10/28 18:10:53;;;;;;;19.13;11.75;;;;;;;15.87;100.00;100931.69;20977635;28;20117;-77
2022/10/28 18:20:55;;;;;;;18.88;13.02;;;;;;;15.74;100.00;100935.59;20981119;28;20064;-77
2022/10/28 18:30:56;;;;;;;22.35;13.02;;;;;;;15.63;100.00;100943.78;20974969;28;20049;-76
2022/10/28 18:40:59;;;;;;;19.23;10.60;;;;;;;15.58;100.00;100949.19;20946900;28;20489;-76
2022/10/28 18:51:00;;;;;;;22.25;9.55;;;;;;;15.56;100.00;100940.44;20893930;28;20060;-77
2022/10/28 19:01:01;;;;;;;18.17;9.50;;;;;;;15.54;100.00;100941.41;20893060;28;20041;-76
2022/10/28 19:11:03;;;;;;;15.38;9.00;;;;;;;15.43;100.00;100946.97;20964694;23;20079;-71
2022/10/28 19:21:05;;;;;;;19.92;9.88;;;;;;;15.29;100.00;100941.19;20982660;28;20045;-70
2022/10/28 19:31:06;;;;;;;22.55;12.20;;;;;;;15.24;100.00;100927.25;20988944;28;20044;-70
2022/10/28 19:41:08;;;;;;;19.05;10.63;;;;;;;15.25;100.00;100939.53;20956408;28;20049;-69
2022/10/28 19:51:09;;;;;;;19.65;9.30;;;;;;;15.13;100.00;100946.84;20905064;28;20049;-70
2022/10/28 20:01:12;;;;;;;16.15;7.80;;;;;;;15.00;100.00;100960.41;20904119;28;20049;-70
2022/10/28 20:11:14;;;;;;;16.35;7.00;;;;;;;14.91;100.00;100966.78;20917400;28;20151;-69
2022/10/28 20:21:15;;;;;;;19.63;7.43;;;;;;;14.72;100.00;100973.41;20985597;28;20052;-70
2022/10/28 20:31:16;;;;;;;22.42;9.57;;;;;;;14.67;100.00;100972.63;20983408;28;20121;-69
2022/10/28 20:41:18;;;;;;;18.10;7.55;;;;;;;14.46;100.00;100974.81;20951182;28;20099;-70
2022/10/28 20:51:19;;;;;;;19.35;8.20;;;;;;;14.42;100.00;100988.09;20900748;28;20073;-70
2022/10/28 21:01:20;;;;;;;17.38;7.82;;;;;;;14.37;100.00;100980.28;20899661;28;20083;-69
2022/10/28 21:11:22;;;;;;;23.02;8.70;;;;;;;14.20;100.00;100983.28;20914120;28;20048;-69
2022/10/28 21:21:23;;;;;;;22.75;9.50;;;;;;;14.21;100.00;101007.88;20980348;28;20493;-71
2022/10/28 21:31:25;;;;;;;16.92;9.30;;;;;;;14.08;100.00;101021.31;20980647;28;20087;-71
2022/10/28 21:41:26;;;;;;;17.15;8.90;;;;;;;13.94;100.00;101039.13;20943916;28;20413;-72
2022/10/28 21:51:28;;;;;;;18.30;7.25;;;;;;;13.88;100.00;101055.03;20895553;28;20111;-71
2022/10/28 22:01:31;;;;;;;19.00;8.93;;;;;;;13.80;100.00;101035.91;20879139;28;20541;-71
2022/10/28 22:11:32;;;;;;;15.82;8.27;;;;;;;13.72;100.00;101050.94;20820072;28;20428;-71
2022/10/28 22:21:34;;;;;;;19.35;8.60;;;;;;;13.54;100.00;101049.50;20819615;28;20115;-72
2022/10/28 22:31:35;;;;;;;16.20;7.80;;;;;;;13.40;100.00;101049.75;20819098;28;20534;-73
2022/10/28 22:41:36;;;;;;;16.48;8.45;;;;;;;13.34;100.00;101041.97;20854140;28;20056;-73
2022/10/28 22:51:38;;;;;;;20.05;9.25;;;;;;;13.33;100.00;101041.09;20902165;28;20049;-73
2022/10/28 23:01:39;;;;;;;17.35;10.05;;;;;;;13.33;100.00;101053.38;20915421;28;20459;-72
2022/10/28 23:11:41;;;;;;;20.52;10.23;;;;;;;13.30;100.00;101037.66;20916101;28;20401;-72
2022/10/28 23:21:42;;;;;;;19.67;10.80;;;;;;;13.16;100.00;101042.22;20915929;28;20082;-72
2022/10/28 23:31:44;;;;;;;18.67;10.50;;;;;;;13.04;100.00;101020.50;20914537;28;20048;-72
2022/10/28 23:41:45;;;;;;;21.10;11.68;;;;;;;12.96;100.00;101025.00;20914557;28;20127;-72
2022/10/28 23:51:46;;;;;;;26.15;12.80;;;;;;;12.97;100.00;101018.84;20913792;28;20056;-72
